sensor_id;sensor_type;location;lat;lon;timestamp;P1;durP1;ratioP1;P2;durP2;ratioP2
15271;SDS011;7737;51.578;7.268;2023-02-15T00:01:09;22.80;;;17.47;;
15271;SDS011;7737;51.578;7.268;2023-02-15T00:03:35;24.20;;;18.13;;
15271;SDS011;7737;51.578;7.268;2023-02-15T00:06:02;26.20;;;18.03;;
15271;SDS011;7737;51.578;7.268;2023-02-15T00:08:28;32.73;;;20.67;;
15271;SDS011;7737;51.578;7.268;2023-02-15T00:11:02;24.30;;;18.00;;
15271;SDS011;7737;51.578;7.268;2023-02-15T00:13:29;24.70;;;18.00;;
15271;SDS011;7737;51.578;7.268;2023-02-15T00:16:01;28.53;;;18.47;;
15271;SDS011;7737;51.578;7.268;2023-02-15T00:18:27;30.93;;;19.53;;
15271;SDS011;7737;51.578;7.268;2023-02-15T00:20:53;21.57;;;17.07;;
15271;SDS011;7737;51.578;7.268;2023-02-15T00:23:20;23.10;;;16.50;;
15271;SDS011;7737;51.578;7.268;2023-02-15T00:25:46;20.87;;;16.47;;
15271;SDS011;7737;51.578;7.268;2023-02-15T00:28:12;24.20;;;14.87;;
15271;SDS011;7737;51.578;7.268;2023-02-15T00:30:39;23.33;;;15.23;;
15271;SDS011;7737;51.578;7.268;2023-02-15T00:33:06;21.70;;;16.03;;
15271;SDS011;7737;51.578;7.268;2023-02-15T00:35:32;23.93;;;15.70;;
15271;SDS011;7737;51.578;7.268;2023-02-15T00:37:59;21.23;;;15.30;;
15271;SDS011;7737;51.578;7.268;2023-02-15T00:40:25;18.67;;;14.60;;
15271;SDS011;7737;51.578;7.268;2023-02-15T00:42:51;18.13;;;13.30;;
15271;SDS011;7737;51.578;7.268;2023-02-15T00:45:18;19.63;;;14.07;;
15271;SDS011;7737;51.578;7.268;2023-02-15T00:47:46;19.90;;;14.13;;
15271;SDS011;7737;51.578;7.268;2023-02-15T00:50:13;22.07;;;15.03;;
15271;SDS011;7737;51.578;7.268;2023-02-15T00:52:40;19.07;;;13.80;;
15271;SDS011;7737;51.578;7.268;2023-02-15T00:55:06;21.90;;;15.10;;
15271;SDS011;7737;51.578;7.268;2023-02-15T00:57:33;21.30;;;14.77;;
15271;SDS011;7737;51.578;7.268;2023-02-15T00:59:59;25.43;;;17.23;;
15271;SDS011;7737;51.578;7.268;2023-02-15T01:02:25;23.27;;;17.63;;
15271;SDS011;7737;51.578;7.268;2023-02-15T01:04:52;21.70;;;15.50;;
15271;SDS011;7737;51.578;7.268;2023-02-15T01:07:19;23.23;;;16.67;;
15271;SDS011;7737;51.578;7.268;2023-02-15T01:09:45;22.27;;;16.07;;
15271;SDS011;7737;51.578;7.268;2023-02-15T01:12:12;18.63;;;13.53;;
15271;SDS011;7737;51.578;7.268;2023-02-15T01:14:38;19.13;;;14.30;;
15271;SDS011;7737;51.578;7.268;2023-02-15T01:17:04;20.60;;;14.77;;
15271;SDS011;7737;51.578;7.268;2023-02-15T01:19:31;19.47;;;14.97;;
15271;SDS011;7737;51.578;7.268;2023-02-15T01:21:57;22.30;;;16.00;;
15271;SDS011;7737;51.578;7.268;2023-02-15T01:24:25;20.80;;;15.03;;
15271;SDS011;7737;51.578;7.268;2023-02-15T01:26:51;22.50;;;16.33;;
15271;SDS011;7737;51.578;7.268;2023-02-15T01:29:17;24.77;;;16.67;;
15271;SDS011;7737;51.578;7.268;2023-02-15T01:31:44;21.73;;;15.53;;
15271;SDS011;7737;51.578;7.268;2023-02-15T01:34:10;22.33;;;16.57;;
15271;SDS011;7737;51.578;7.268;2023-02-15T01:36:36;20.10;;;15.60;;
15271;SDS011;7737;51.578;7.268;2023-02-15T01:39:02;22.37;;;15.57;;
15271;SDS011;7737;51.578;7.268;2023-02-15T01:41:30;21.60;;;15.57;;
15271;SDS011;7737;51.578;7.268;2023-02-15T01:43:58;24.87;;;17.33;;
15271;SDS011;7737;51.578;7.268;2023-02-15T01:46:26;23.43;;;16.70;;
15271;SDS011;7737;51.578;7.268;2023-02-15T01:48:54;20.30;;;16.20;;
15271;SDS011;7737;51.578;7.268;2023-02-15T01:51:22;23.67;;;16.47;;
15271;SDS011;7737;51.578;7.268;2023-02-15T01:53:50;22.13;;;15.77;;
15271;SDS011;7737;51.578;7.268;2023-02-15T01:56:19;20.17;;;15.00;;
15271;SDS011;7737;51.578;7.268;2023-02-15T01:58:47;24.87;;;17.30;;
15271;SDS011;7737;51.578;7.268;2023-02-15T02:01:14;21.60;;;16.40;;
15271;SDS011;7737;51.578;7.268;2023-02-15T02:03:43;25.73;;;17.40;;
15271;SDS011;7737;51.578;7.268;2023-02-15T02:06:12;23.17;;;17.10;;
15271;SDS011;7737;51.578;7.268;2023-02-15T02:08:38;23.40;;;15.77;;
15271;SDS011;7737;51.578;7.268;2023-02-15T02:11:09;21.93;;;16.43;;
15271;SDS011;7737;51.578;7.268;2023-02-15T02:13:35;22.97;;;16.30;;
15271;SDS011;7737;51.578;7.268;2023-02-15T02:16:04;21.37;;;15.83;;
15271;SDS011;7737;51.578;7.268;2023-02-15T02:18:35;20.73;;;15.53;;
15271;SDS011;7737;51.578;7.268;2023-02-15T02:21:24;21.93;;;16.60;;
15271;SDS011;7737;51.578;7.268;2023-02-15T02:24:14;22.17;;;16.00;;
15271;SDS011;7737;51.578;7.268;2023-02-15T02:26:54;23.03;;;16.00;;
15271;SDS011;7737;51.578;7.268;2023-02-15T02:35:07;21.63;;;15.33;;
15271;SDS011;7737;51.578;7.268;2023-02-15T02:37:35;23.77;;;15.43;;
15271;SDS011;7737;51.578;7.268;2023-02-15T02:40:05;22.33;;;16.73;;
15271;SDS011;7737;51.578;7.268;2023-02-15T02:42:35;22.33;;;16.03;;
15271;SDS011;7737;51.578;7.268;2023-02-15T02:45:03;20.37;;;15.63;;
15271;SDS011;7737;51.578;7.268;2023-02-15T02:47:32;23.70;;;16.03;;
15271;SDS011;7737;51.578;7.268;2023-02-15T02:50:00;21.60;;;16.17;;
15271;SDS011;7737;51.578;7.268;2023-02-15T02:52:37;20.63;;;16.07;;
15271;SDS011;7737;51.578;7.268;2023-02-15T02:55:04;24.70;;;16.67;;
15271;SDS011;7737;51.578;7.268;2023-02-15T02:57:31;25.63;;;16.97;;
15271;SDS011;7737;51.578;7.268;2023-02-15T02:59:58;21.83;;;16.23;;
15271;SDS011;7737;51.578;7.268;2023-02-15T03:02:26;22.47;;;16.17;;
15271;SDS011;7737;51.578;7.268;2023-02-15T03:04:56;23.10;;;16.50;;
15271;SDS011;7737;51.578;7.268;2023-02-15T03:07:28;25.60;;;17.40;;
15271;SDS011;7737;51.578;7.268;2023-02-15T03:09:57;23.93;;;16.80;;
15271;SDS011;7737;51.578;7.268;2023-02-15T03:12:26;21.80;;;15.70;;
15271;SDS011;7737;51.578;7.268;2023-02-15T03:14:55;22.10;;;15.67;;
15271;SDS011;7737;51.578;7.268;2023-02-15T03:17:23;21.33;;;15.50;;
15271;SDS011;7737;51.578;7.268;2023-02-15T03:19:51;24.73;;;16.63;;
15271;SDS011;7737;51.578;7.268;2023-02-15T03:22:24;25.67;;;17.30;;
15271;SDS011;7737;51.578;7.268;2023-02-15T03:24:53;25.40;;;16.93;;
15271;SDS011;7737;51.578;7.268;2023-02-15T03:27:24;23.93;;;16.20;;
15271;SDS011;7737;51.578;7.268;2023-02-15T03:29:51;23.37;;;16.60;;
15271;SDS011;7737;51.578;7.268;2023-02-15T03:32:18;22.77;;;15.97;;
15271;SDS011;7737;51.578;7.268;2023-02-15T03:34:45;23.83;;;16.33;;
15271;SDS011;7737;51.578;7.268;2023-02-15T03:37:13;24.80;;;17.80;;
15271;SDS011;7737;51.578;7.268;2023-02-15T03:39:42;22.67;;;16.43;;
15271;SDS011;7737;51.578;7.268;2023-02-15T03:42:12;22.57;;;16.90;;
15271;SDS011;7737;51.578;7.268;2023-02-15T03:44:43;22.33;;;17.40;;
15271;SDS011;7737;51.578;7.268;2023-02-15T03:47:13;24.43;;;17.47;;
15271;SDS011;7737;51.578;7.268;2023-02-15T03:49:43;26.30;;;18.27;;
15271;SDS011;7737;51.578;7.268;2023-02-15T03:52:10;25.23;;;17.87;;
15271;SDS011;7737;51.578;7.268;2023-02-15T03:54:39;27.73;;;18.83;;
15271;SDS011;7737;51.578;7.268;2023-02-15T03:57:09;27.83;;;18.37;;
15271;SDS011;7737;51.578;7.268;2023-02-15T03:59:55;28.40;;;19.73;;
15271;SDS011;7737;51.578;7.268;2023-02-15T04:02:40;27.03;;;18.33;;
15271;SDS011;7737;51.578;7.268;2023-02-15T04:05:10;28.13;;;18.17;;
15271;SDS011;7737;51.578;7.268;2023-02-15T04:07:37;27.97;;;18.93;;
15271;SDS011;7737;51.578;7.268;2023-02-15T04:10:03;26.07;;;18.23;;
15271;SDS011;7737;51.578;7.268;2023-02-15T04:12:47;27.97;;;18.30;;
15271;SDS011;7737;51.578;7.268;2023-02-15T04:15:14;28.03;;;18.53;;
15271;SDS011;7737;51.578;7.268;2023-02-15T04:17:58;27.60;;;18.67;;
15271;SDS011;7737;51.578;7.268;2023-02-15T04:20:25;25.47;;;17.63;;
15271;SDS011;7737;51.578;7.268;2023-02-15T04:23:09;26.23;;;18.40;;
15271;SDS011;7737;51.578;7.268;2023-02-15T04:25:52;26.77;;;17.57;;
15271;SDS011;7737;51.578;7.268;2023-02-15T04:28:19;24.50;;;17.67;;
15271;SDS011;7737;51.578;7.268;2023-02-15T04:30:46;27.73;;;18.03;;
15271;SDS011;7737;51.578;7.268;2023-02-15T04:33:13;28.27;;;18.43;;
15271;SDS011;7737;51.578;7.268;2023-02-15T04:35:39;27.00;;;17.23;;
15271;SDS011;7737;51.578;7.268;2023-02-15T04:38:05;27.60;;;18.63;;
15271;SDS011;7737;51.578;7.268;2023-02-15T04:40:32;30.27;;;20.00;;
15271;SDS011;7737;51.578;7.268;2023-02-15T04:42:58;27.63;;;18.27;;
15271;SDS011;7737;51.578;7.268;2023-02-15T04:45:24;27.20;;;19.57;;
15271;SDS011;7737;51.578;7.268;2023-02-15T04:47:53;30.47;;;20.03;;
15271;SDS011;7737;51.578;7.268;2023-02-15T04:50:19;29.20;;;17.73;;
15271;SDS011;7737;51.578;7.268;2023-02-15T04:52:46;27.90;;;18.07;;
15271;SDS011;7737;51.578;7.268;2023-02-15T04:55:12;26.23;;;18.87;;
15271;SDS011;7737;51.578;7.268;2023-02-15T04:57:39;28.17;;;19.13;;
15271;SDS011;7737;51.578;7.268;2023-02-15T05:00:05;28.27;;;19.73;;
15271;SDS011;7737;51.578;7.268;2023-02-15T05:02:33;32.17;;;19.20;;
15271;SDS011;7737;51.578;7.268;2023-02-15T05:05:01;31.00;;;19.00;;
15271;SDS011;7737;51.578;7.268;2023-02-15T05:07:27;30.20;;;19.30;;
15271;SDS011;7737;51.578;7.268;2023-02-15T05:09:53;31.67;;;19.77;;
15271;SDS011;7737;51.578;7.268;2023-02-15T05:12:20;29.93;;;19.40;;
15271;SDS011;7737;51.578;7.268;2023-02-15T05:14:46;32.13;;;19.27;;
15271;SDS011;7737;51.578;7.268;2023-02-15T05:17:12;30.03;;;19.10;;
15271;SDS011;7737;51.578;7.268;2023-02-15T05:19:38;28.50;;;18.67;;
15271;SDS011;7737;51.578;7.268;2023-02-15T05:22:06;29.37;;;19.77;;
15271;SDS011;7737;51.578;7.268;2023-02-15T05:24:32;29.73;;;19.10;;
15271;SDS011;7737;51.578;7.268;2023-02-15T05:27:16;29.70;;;19.13;;
15271;SDS011;7737;51.578;7.268;2023-02-15T05:30:00;28.07;;;18.40;;
15271;SDS011;7737;51.578;7.268;2023-02-15T05:32:27;31.73;;;19.60;;
15271;SDS011;7737;51.578;7.268;2023-02-15T05:34:53;34.60;;;20.20;;
15271;SDS011;7737;51.578;7.268;2023-02-15T05:37:20;33.73;;;19.97;;
15271;SDS011;7737;51.578;7.268;2023-02-15T05:39:47;33.73;;;19.60;;
15271;SDS011;7737;51.578;7.268;2023-02-15T05:42:13;34.67;;;20.67;;
15271;SDS011;7737;51.578;7.268;2023-02-15T05:44:39;35.53;;;21.43;;
15271;SDS011;7737;51.578;7.268;2023-02-15T05:47:06;39.20;;;21.83;;
15271;SDS011;7737;51.578;7.268;2023-02-15T05:49:33;39.27;;;22.13;;
15271;SDS011;7737;51.578;7.268;2023-02-15T05:51:59;36.97;;;21.83;;
15271;SDS011;7737;51.578;7.268;2023-02-15T05:54:27;32.07;;;20.20;;
15271;SDS011;7737;51.578;7.268;2023-02-15T05:56:53;35.07;;;21.47;;
15271;SDS011;7737;51.578;7.268;2023-02-15T05:59:20;35.17;;;20.90;;
15271;SDS011;7737;51.578;7.268;2023-02-15T06:01:46;35.93;;;21.27;;
15271;SDS011;7737;51.578;7.268;2023-02-15T06:04:12;38.50;;;21.50;;
15271;SDS011;7737;51.578;7.268;2023-02-15T06:06:39;33.10;;;20.57;;
15271;SDS011;7737;51.578;7.268;2023-02-15T06:09:05;38.23;;;20.23;;
15271;SDS011;7737;51.578;7.268;2023-02-15T06:11:33;36.93;;;21.03;;
15271;SDS011;7737;51.578;7.268;2023-02-15T06:13:59;32.57;;;20.20;;
15271;SDS011;7737;51.578;7.268;2023-02-15T06:16:25;33.20;;;20.20;;
15271;SDS011;7737;51.578;7.268;2023-02-15T06:18:52;36.47;;;20.97;;
15271;SDS011;7737;51.578;7.268;2023-02-15T06:21:18;33.47;;;20.63;;
15271;SDS011;7737;51.578;7.268;2023-02-15T06:23:44;34.73;;;20.27;;
15271;SDS011;7737;51.578;7.268;2023-02-15T06:26:11;31.37;;;19.93;;
15271;SDS011;7737;51.578;7.268;2023-02-15T06:28:38;31.93;;;20.30;;
15271;SDS011;7737;51.578;7.268;2023-02-15T06:31:06;36.23;;;20.00;;
15271;SDS011;7737;51.578;7.268;2023-02-15T06:33:32;29.97;;;19.20;;
15271;SDS011;7737;51.578;7.268;2023-02-15T06:35:59;33.93;;;18.83;;
15271;SDS011;7737;51.578;7.268;2023-02-15T06:38:26;32.33;;;18.93;;
15271;SDS011;7737;51.578;7.268;2023-02-15T06:40:52;32.30;;;19.37;;
15271;SDS011;7737;51.578;7.268;2023-02-15T06:43:19;34.23;;;19.33;;
15271;SDS011;7737;51.578;7.268;2023-02-15T06:45:46;34.33;;;19.73;;
15271;SDS011;7737;51.578;7.268;2023-02-15T06:48:13;32.97;;;20.30;;
15271;SDS011;7737;51.578;7.268;2023-02-15T06:50:39;32.07;;;19.90;;
15271;SDS011;7737;51.578;7.268;2023-02-15T06:53:06;30.70;;;20.07;;
15271;SDS011;7737;51.578;7.268;2023-02-15T06:55:32;30.13;;;19.10;;
15271;SDS011;7737;51.578;7.268;2023-02-15T06:57:58;27.47;;;18.00;;
15271;SDS011;7737;51.578;7.268;2023-02-15T07:00:25;29.43;;;18.77;;
15271;SDS011;7737;51.578;7.268;2023-02-15T07:02:54;27.73;;;18.73;;
15271;SDS011;7737;51.578;7.268;2023-02-15T07:05:22;30.43;;;18.77;;
15271;SDS011;7737;51.578;7.268;2023-02-15T07:07:49;32.67;;;20.23;;
15271;SDS011;7737;51.578;7.268;2023-02-15T07:10:15;30.40;;;19.27;;
15271;SDS011;7737;51.578;7.268;2023-02-15T07:12:41;28.87;;;19.17;;
15271;SDS011;7737;51.578;7.268;2023-02-15T07:15:07;29.13;;;18.53;;
15271;SDS011;7737;51.578;7.268;2023-02-15T07:17:34;34.00;;;20.17;;
15271;SDS011;7737;51.578;7.268;2023-02-15T07:20:02;34.23;;;19.67;;
15271;SDS011;7737;51.578;7.268;2023-02-15T07:22:28;31.13;;;18.40;;
15271;SDS011;7737;51.578;7.268;2023-02-15T07:24:55;33.30;;;18.67;;
15271;SDS011;7737;51.578;7.268;2023-02-15T07:27:22;33.57;;;18.70;;
15271;SDS011;7737;51.578;7.268;2023-02-15T07:29:48;33.50;;;20.10;;
15271;SDS011;7737;51.578;7.268;2023-02-15T07:32:14;32.97;;;19.20;;
15271;SDS011;7737;51.578;7.268;2023-02-15T07:34:41;30.33;;;19.37;;
15271;SDS011;7737;51.578;7.268;2023-02-15T07:37:09;32.60;;;21.03;;
15271;SDS011;7737;51.578;7.268;2023-02-15T07:39:35;37.67;;;22.13;;
15271;SDS011;7737;51.578;7.268;2023-02-15T07:42:01;30.57;;;20.60;;
15271;SDS011;7737;51.578;7.268;2023-02-15T07:44:28;29.53;;;21.00;;
15271;SDS011;7737;51.578;7.268;2023-02-15T07:46:54;30.97;;;20.87;;
15271;SDS011;7737;51.578;7.268;2023-02-15T07:49:20;34.23;;;21.60;;
15271;SDS011;7737;51.578;7.268;2023-02-15T07:51:47;32.33;;;21.10;;
15271;SDS011;7737;51.578;7.268;2023-02-15T07:54:14;34.33;;;21.70;;
15271;SDS011;7737;51.578;7.268;2023-02-15T07:56:41;33.93;;;21.10;;
15271;SDS011;7737;51.578;7.268;2023-02-15T07:59:08;34.83;;;21.40;;
15271;SDS011;7737;51.578;7.268;2023-02-15T08:01:35;37.00;;;21.67;;
15271;SDS011;7737;51.578;7.268;2023-02-15T08:04:02;42.47;;;23.40;;
15271;SDS011;7737;51.578;7.268;2023-02-15T08:06:29;38.20;;;25.27;;
15271;SDS011;7737;51.578;7.268;2023-02-15T08:08:56;34.93;;;23.83;;
15271;SDS011;7737;51.578;7.268;2023-02-15T08:11:24;37.00;;;22.10;;
15271;SDS011;7737;51.578;7.268;2023-02-15T08:13:51;35.37;;;22.60;;
15271;SDS011;7737;51.578;7.268;2023-02-15T08:16:29;39.67;;;26.47;;
15271;SDS011;7737;51.578;7.268;2023-02-15T08:18:55;40.70;;;24.40;;
15271;SDS011;7737;51.578;7.268;2023-02-15T08:21:22;37.67;;;23.30;;
15271;SDS011;7737;51.578;7.268;2023-02-15T08:23:49;41.87;;;25.33;;
15271;SDS011;7737;51.578;7.268;2023-02-15T08:26:15;39.70;;;26.37;;
15271;SDS011;7737;51.578;7.268;2023-02-15T08:28:44;37.43;;;24.97;;
15271;SDS011;7737;51.578;7.268;2023-02-15T08:31:11;48.67;;;29.00;;
15271;SDS011;7737;51.578;7.268;2023-02-15T08:33:39;45.10;;;28.93;;
15271;SDS011;7737;51.578;7.268;2023-02-15T08:36:07;43.27;;;25.87;;
15271;SDS011;7737;51.578;7.268;2023-02-15T08:38:34;44.10;;;27.93;;
15271;SDS011;7737;51.578;7.268;2023-02-15T08:41:08;41.33;;;27.90;;
15271;SDS011;7737;51.578;7.268;2023-02-15T08:43:35;40.63;;;27.33;;
15271;SDS011;7737;51.578;7.268;2023-02-15T08:46:03;41.27;;;28.27;;
15271;SDS011;7737;51.578;7.268;2023-02-15T08:48:29;43.67;;;27.73;;
15271;SDS011;7737;51.578;7.268;2023-02-15T08:50:55;37.97;;;26.60;;
15271;SDS011;7737;51.578;7.268;2023-02-15T08:53:22;39.73;;;27.43;;
15271;SDS011;7737;51.578;7.268;2023-02-15T08:55:54;41.00;;;26.93;;
15271;SDS011;7737;51.578;7.268;2023-02-15T08:58:21;43.33;;;27.83;;
15271;SDS011;7737;51.578;7.268;2023-02-15T09:00:47;41.70;;;27.37;;
15271;SDS011;7737;51.578;7.268;2023-02-15T09:03:15;47.77;;;28.43;;
15271;SDS011;7737;51.578;7.268;2023-02-15T09:05:41;43.47;;;28.53;;
15271;SDS011;7737;51.578;7.268;2023-02-15T09:08:07;41.83;;;28.40;;
15271;SDS011;7737;51.578;7.268;2023-02-15T09:10:34;45.83;;;29.33;;
15271;SDS011;7737;51.578;7.268;2023-02-15T09:13:00;43.63;;;27.87;;
15271;SDS011;7737;51.578;7.268;2023-02-15T09:15:26;42.40;;;29.00;;
15271;SDS011;7737;51.578;7.268;2023-02-15T09:17:53;41.40;;;27.40;;
15271;SDS011;7737;51.578;7.268;2023-02-15T09:20:20;38.70;;;26.03;;
15271;SDS011;7737;51.578;7.268;2023-02-15T09:22:47;33.73;;;24.53;;
15271;SDS011;7737;51.578;7.268;2023-02-15T09:25:14;34.73;;;24.87;;
15271;SDS011;7737;51.578;7.268;2023-02-15T09:27:40;37.73;;;24.37;;
15271;SDS011;7737;51.578;7.268;2023-02-15T09:30:07;30.97;;;23.60;;
15271;SDS011;7737;51.578;7.268;2023-02-15T09:32:33;32.93;;;24.10;;
15271;SDS011;7737;51.578;7.268;2023-02-15T09:35:00;36.00;;;24.60;;
15271;SDS011;7737;51.578;7.268;2023-02-15T09:37:27;32.70;;;24.37;;
15271;SDS011;7737;51.578;7.268;2023-02-15T09:39:56;35.43;;;25.97;;
15271;SDS011;7737;51.578;7.268;2023-02-15T09:45:23;32.33;;;23.97;;
15271;SDS011;7737;51.578;7.268;2023-02-15T09:50:38;32.03;;;23.57;;
15271;SDS011;7737;51.578;7.268;2023-02-15T09:53:14;31.23;;;23.90;;
15271;SDS011;7737;51.578;7.268;2023-02-15T09:55:45;33.83;;;22.37;;
15271;SDS011;7737;51.578;7.268;2023-02-15T09:58:18;33.00;;;23.70;;
15271;SDS011;7737;51.578;7.268;2023-02-15T10:00:48;31.47;;;22.97;;
15271;SDS011;7737;51.578;7.268;2023-02-15T10:03:19;31.30;;;23.27;;
15271;SDS011;7737;51.578;7.268;2023-02-15T10:05:53;32.23;;;23.67;;
15271;SDS011;7737;51.578;7.268;2023-02-15T10:08:45;33.87;;;24.03;;
15271;SDS011;7737;51.578;7.268;2023-02-15T10:11:15;35.00;;;23.87;;
15271;SDS011;7737;51.578;7.268;2023-02-15T10:14:04;32.10;;;24.27;;
15271;SDS011;7737;51.578;7.268;2023-02-15T10:16:36;31.53;;;22.90;;
15271;SDS011;7737;51.578;7.268;2023-02-15T10:19:04;33.43;;;23.07;;
15271;SDS011;7737;51.578;7.268;2023-02-15T10:21:38;30.73;;;22.30;;
15271;SDS011;7737;51.578;7.268;2023-02-15T10:24:23;29.70;;;22.53;;
15271;SDS011;7737;51.578;7.268;2023-02-15T10:26:53;34.03;;;23.63;;
15271;SDS011;7737;51.578;7.268;2023-02-15T10:29:24;30.73;;;24.13;;
15271;SDS011;7737;51.578;7.268;2023-02-15T10:31:55;33.37;;;23.27;;
15271;SDS011;7737;51.578;7.268;2023-02-15T10:34:25;30.73;;;24.00;;
15271;SDS011;7737;51.578;7.268;2023-02-15T10:39:42;32.40;;;23.85;;
15271;SDS011;7737;51.578;7.268;2023-02-15T10:42:17;33.07;;;23.20;;
15271;SDS011;7737;51.578;7.268;2023-02-15T10:44:48;33.38;;;24.60;;
15271;SDS011;7737;51.578;7.268;2023-02-15T10:50:15;32.17;;;23.50;;
15271;SDS011;7737;51.578;7.268;2023-02-15T10:52:47;32.43;;;24.27;;
15271;SDS011;7737;51.578;7.268;2023-02-15T10:55:22;29.80;;;23.47;;
15271;SDS011;7737;51.578;7.268;2023-02-15T10:57:55;36.42;;;23.70;;
15271;SDS011;7737;51.578;7.268;2023-02-15T11:00:26;33.10;;;24.33;;
15271;SDS011;7737;51.578;7.268;2023-02-15T11:03:02;31.70;;;23.07;;
15271;SDS011;7737;51.578;7.268;2023-02-15T11:05:39;33.38;;;22.63;;
15271;SDS011;7737;51.578;7.268;2023-02-15T11:08:08;34.45;;;23.13;;
15271;SDS011;7737;51.578;7.268;2023-02-15T11:10:37;31.08;;;23.02;;
15271;SDS011;7737;51.578;7.268;2023-02-15T11:13:05;33.60;;;21.92;;
15271;SDS011;7737;51.578;7.268;2023-02-15T11:15:34;30.98;;;22.85;;
15271;SDS011;7737;51.578;7.268;2023-02-15T11:18:02;35.05;;;27.35;;
15271;SDS011;7737;51.578;7.268;2023-02-15T11:20:31;30.35;;;23.23;;
15271;SDS011;7737;51.578;7.268;2023-02-15T11:22:59;31.45;;;23.63;;
15271;SDS011;7737;51.578;7.268;2023-02-15T11:25:28;28.42;;;22.65;;
15271;SDS011;7737;51.578;7.268;2023-02-15T11:27:57;32.00;;;22.23;;
15271;SDS011;7737;51.578;7.268;2023-02-15T11:30:25;24.27;;;17.83;;
15271;SDS011;7737;51.578;7.268;2023-02-15T11:32:54;23.85;;;16.77;;
15271;SDS011;7737;51.578;7.268;2023-02-15T11:35:24;23.52;;;15.30;;
15271;SDS011;7737;51.578;7.268;2023-02-15T11:37:53;21.17;;;15.55;;
15271;SDS011;7737;51.578;7.268;2023-02-15T11:40:21;20.00;;;14.88;;
15271;SDS011;7737;51.578;7.268;2023-02-15T11:42:51;19.05;;;14.23;;
15271;SDS011;7737;51.578;7.268;2023-02-15T11:45:21;20.63;;;14.77;;
15271;SDS011;7737;51.578;7.268;2023-02-15T11:47:48;18.85;;;13.38;;
15271;SDS011;7737;51.578;7.268;2023-02-15T11:50:15;16.77;;;13.63;;
15271;SDS011;7737;51.578;7.268;2023-02-15T11:52:43;19.75;;;14.02;;
15271;SDS011;7737;51.578;7.268;2023-02-15T11:55:11;17.40;;;13.80;;
15271;SDS011;7737;51.578;7.268;2023-02-15T11:57:39;19.98;;;13.90;;
15271;SDS011;7737;51.578;7.268;2023-02-15T12:00:09;19.00;;;14.05;;
15271;SDS011;7737;51.578;7.268;2023-02-15T12:02:38;21.60;;;13.60;;
15271;SDS011;7737;51.578;7.268;2023-02-15T12:05:06;19.67;;;13.27;;
15271;SDS011;7737;51.578;7.268;2023-02-15T12:07:36;15.30;;;12.10;;
15271;SDS011;7737;51.578;7.268;2023-02-15T12:10:04;17.05;;;12.65;;
15271;SDS011;7737;51.578;7.268;2023-02-15T12:12:37;18.27;;;13.15;;
15271;SDS011;7737;51.578;7.268;2023-02-15T12:15:04;18.48;;;13.73;;
15271;SDS011;7737;51.578;7.268;2023-02-15T12:17:31;17.58;;;12.93;;
15271;SDS011;7737;51.578;7.268;2023-02-15T12:20:01;16.42;;;11.80;;
15271;SDS011;7737;51.578;7.268;2023-02-15T12:22:29;17.17;;;12.13;;
15271;SDS011;7737;51.578;7.268;2023-02-15T12:24:58;17.17;;;11.77;;
15271;SDS011;7737;51.578;7.268;2023-02-15T12:27:26;14.27;;;11.05;;
15271;SDS011;7737;51.578;7.268;2023-02-15T12:29:53;19.40;;;14.20;;
15271;SDS011;7737;51.578;7.268;2023-02-15T12:32:22;17.42;;;13.35;;
15271;SDS011;7737;51.578;7.268;2023-02-15T12:34:50;16.48;;;11.70;;
15271;SDS011;7737;51.578;7.268;2023-02-15T12:37:19;15.95;;;11.10;;
15271;SDS011;7737;51.578;7.268;2023-02-15T12:39:52;14.45;;;10.40;;
15271;SDS011;7737;51.578;7.268;2023-02-15T12:42:19;15.88;;;10.70;;
15271;SDS011;7737;51.578;7.268;2023-02-15T12:44:53;14.40;;;9.68;;
15271;SDS011;7737;51.578;7.268;2023-02-15T12:47:20;12.98;;;9.80;;
15271;SDS011;7737;51.578;7.268;2023-02-15T12:50:04;13.85;;;9.13;;
15271;SDS011;7737;51.578;7.268;2023-02-15T12:52:34;14.93;;;10.40;;
15271;SDS011;7737;51.578;7.268;2023-02-15T12:55:09;14.88;;;10.35;;
15271;SDS011;7737;51.578;7.268;2023-02-15T12:57:36;16.90;;;11.10;;
15271;SDS011;7737;51.578;7.268;2023-02-15T13:00:03;13.75;;;10.05;;
15271;SDS011;7737;51.578;7.268;2023-02-15T13:02:30;15.13;;;9.70;;
15271;SDS011;7737;51.578;7.268;2023-02-15T13:05:04;14.90;;;10.38;;
15271;SDS011;7737;51.578;7.268;2023-02-15T13:07:32;13.60;;;10.00;;
15271;SDS011;7737;51.578;7.268;2023-02-15T13:10:00;15.20;;;10.48;;
15271;SDS011;7737;51.578;7.268;2023-02-15T13:12:28;13.13;;;9.93;;
15271;SDS011;7737;51.578;7.268;2023-02-15T13:14:55;12.77;;;9.45;;
15271;SDS011;7737;51.578;7.268;2023-02-15T13:17:24;14.63;;;9.43;;
15271;SDS011;7737;51.578;7.268;2023-02-15T13:19:54;13.20;;;9.43;;
15271;SDS011;7737;51.578;7.268;2023-02-15T13:22:23;14.23;;;8.70;;
15271;SDS011;7737;51.578;7.268;2023-02-15T13:24:51;13.30;;;9.10;;
15271;SDS011;7737;51.578;7.268;2023-02-15T13:27:21;12.95;;;8.55;;
15271;SDS011;7737;51.578;7.268;2023-02-15T13:29:49;13.77;;;9.20;;
15271;SDS011;7737;51.578;7.268;2023-02-15T13:32:21;13.93;;;8.73;;
15271;SDS011;7737;51.578;7.268;2023-02-15T13:34:48;11.75;;;8.32;;
15271;SDS011;7737;51.578;7.268;2023-02-15T13:37:15;12.02;;;8.55;;
15271;SDS011;7737;51.578;7.268;2023-02-15T13:39:44;12.15;;;8.73;;
15271;SDS011;7737;51.578;7.268;2023-02-15T13:42:15;11.75;;;8.55;;
15271;SDS011;7737;51.578;7.268;2023-02-15T13:44:53;15.73;;;9.48;;
15271;SDS011;7737;51.578;7.268;2023-02-15T13:47:24;12.93;;;9.50;;
15271;SDS011;7737;51.578;7.268;2023-02-15T13:49:56;15.57;;;9.93;;
15271;SDS011;7737;51.578;7.268;2023-02-15T13:52:29;12.95;;;8.93;;
15271;SDS011;7737;51.578;7.268;2023-02-15T13:54:59;13.05;;;8.85;;
15271;SDS011;7737;51.578;7.268;2023-02-15T13:57:40;12.60;;;9.13;;
15271;SDS011;7737;51.578;7.268;2023-02-15T14:00:14;16.30;;;9.68;;
15271;SDS011;7737;51.578;7.268;2023-02-15T14:02:53;16.08;;;10.38;;
15271;SDS011;7737;51.578;7.268;2023-02-15T14:05:33;15.68;;;10.35;;
15271;SDS011;7737;51.578;7.268;2023-02-15T14:08:03;18.65;;;12.05;;
15271;SDS011;7737;51.578;7.268;2023-02-15T14:13:31;19.17;;;12.50;;
15271;SDS011;7737;51.578;7.268;2023-02-15T14:16:03;16.27;;;11.18;;
15271;SDS011;7737;51.578;7.268;2023-02-15T14:18:32;17.33;;;11.25;;
15271;SDS011;7737;51.578;7.268;2023-02-15T14:21:04;15.05;;;10.30;;
15271;SDS011;7737;51.578;7.268;2023-02-15T14:23:37;14.23;;;10.57;;
15271;SDS011;7737;51.578;7.268;2023-02-15T14:26:06;16.60;;;11.32;;
15271;SDS011;7737;51.578;7.268;2023-02-15T14:28:37;16.92;;;10.65;;
15271;SDS011;7737;51.578;7.268;2023-02-15T14:31:06;15.40;;;10.65;;
15271;SDS011;7737;51.578;7.268;2023-02-15T14:33:36;14.07;;;10.57;;
15271;SDS011;7737;51.578;7.268;2023-02-15T14:36:05;16.70;;;11.57;;
15271;SDS011;7737;51.578;7.268;2023-02-15T14:38:37;16.45;;;11.27;;
15271;SDS011;7737;51.578;7.268;2023-02-15T14:41:06;17.52;;;11.40;;
15271;SDS011;7737;51.578;7.268;2023-02-15T14:43:40;17.90;;;11.00;;
15271;SDS011;7737;51.578;7.268;2023-02-15T14:46:10;15.27;;;11.15;;
15271;SDS011;7737;51.578;7.268;2023-02-15T14:48:39;15.95;;;10.68;;
15271;SDS011;7737;51.578;7.268;2023-02-15T14:51:07;14.65;;;10.75;;
15271;SDS011;7737;51.578;7.268;2023-02-15T14:53:37;16.77;;;11.05;;
15271;SDS011;7737;51.578;7.268;2023-02-15T14:56:05;15.20;;;10.55;;
15271;SDS011;7737;51.578;7.268;2023-02-15T14:58:33;17.23;;;10.95;;
15271;SDS011;7737;51.578;7.268;2023-02-15T15:01:03;15.70;;;10.52;;
15271;SDS011;7737;51.578;7.268;2023-02-15T15:03:32;18.65;;;11.30;;
15271;SDS011;7737;51.578;7.268;2023-02-15T15:05:59;14.70;;;10.50;;